createdAt,value
2018-05-04T00:00:34.750Z,14.32
2018-05-04T00:03:39.060Z,14.24
2018-05-04T00:06:43.940Z,14.26
2018-05-04T00:09:47.290Z,14.19
2018-05-04T00:12:50.724Z,14.15
2018-05-04T00:15:54.102Z,14.13
2018-05-04T00:18:57.326Z,14.06
2018-05-04T00:22:00.734Z,14.02
2018-05-04T00:25:03.915Z,13.95
2018-05-04T00:28:07.223Z,13.98
2018-05-04T00:31:10.483Z,14.01
2018-05-04T00:34:14.804Z,14.03
2018-05-04T00:37:18.051Z,14.01
2018-05-04T00:40:21.432Z,14.06
2018-05-04T00:43:24.793Z,13.99
2018-05-04T00:46:28.088Z,13.94
2018-05-04T00:49:31.384Z,13.82
2018-05-04T00:52:34.728Z,13.77
2018-05-04T00:55:38.089Z,13.78
2018-05-04T00:58:41.434Z,13.77
2018-05-04T01:01:45.600Z,13.68
2018-05-04T01:04:48.909Z,13.71
2018-05-04T01:07:52.226Z,13.79
2018-05-04T01:10:55.380Z,13.74
2018-05-04T01:13:58.801Z,13.76
2018-05-04T01:17:02.105Z,13.69
2018-05-04T01:20:05.464Z,13.69
2018-05-04T01:23:08.713Z,13.60
2018-05-04T01:26:11.987Z,13.64
2018-05-04T01:29:15.387Z,13.67
2018-05-04T01:32:18.685Z,13.62
2018-05-04T01:35:21.980Z,13.49
2018-05-04T01:38:25.379Z,13.43
2018-05-04T01:41:28.679Z,13.35
2018-05-04T01:44:31.922Z,13.33
2018-05-04T01:47:35.271Z,13.35
2018-05-04T01:50:38.708Z,13.40
2018-05-04T01:53:42.551Z,13.32
2018-05-04T01:56:45.828Z,13.19
2018-05-04T01:59:49.116Z,13.07
2018-05-04T02:02:52.428Z,12.92
2018-05-04T02:05:55.763Z,12.81
2018-05-04T02:08:59.093Z,12.88
2018-05-04T02:12:02.293Z,12.93
2018-05-04T02:15:05.575Z,12.94
2018-05-04T02:18:08.950Z,12.92
2018-05-04T02:21:12.740Z,12.90
2018-05-04T02:24:15.987Z,12.93
2018-05-04T02:27:19.296Z,12.92
2018-05-04T02:30:22.659Z,12.76
2018-05-04T02:33:25.960Z,12.60
2018-05-04T02:36:29.346Z,12.53
2018-05-04T02:39:32.656Z,12.60
2018-05-04T02:42:35.956Z,12.65
2018-05-04T02:45:39.310Z,12.54
2018-05-04T02:48:43.671Z,12.46
2018-05-04T02:51:46.944Z,12.41
2018-05-04T02:54:50.195Z,12.34
2018-05-04T02:57:53.504Z,12.25
2018-05-04T03:00:56.756Z,12.17
2018-05-04T03:04:00.180Z,12.14
2018-05-04T03:07:03.564Z,12.08
2018-05-04T03:10:06.977Z,11.96
2018-05-04T03:13:10.309Z,11.80
2018-05-04T03:16:14.286Z,11.65
2018-05-04T03:19:17.511Z,11.57
2018-05-04T03:22:20.866Z,11.56
2018-05-04T03:25:24.164Z,11.52
2018-05-04T03:28:27.477Z,11.46
2018-05-04T03:31:30.860Z,11.50
2018-05-04T03:34:34.157Z,11.56
2018-05-04T03:37:37.399Z,11.55
2018-05-04T03:40:40.795Z,11.56
2018-05-04T03:43:45.227Z,11.52
2018-05-04T03:46:48.423Z,11.56
2018-05-04T03:49:51.771Z,11.60
2018-05-04T03:52:55.118Z,11.70
2018-05-04T03:55:58.419Z,11.69
2018-05-04T04:00:11.575Z,11.69
2018-05-04T04:04:21.971Z,11.60
2018-05-04T04:07:25.372Z,11.61
2018-05-04T04:10:28.672Z,11.65
2018-05-04T04:13:31.961Z,11.53
2018-05-04T04:16:35.368Z,11.44
2018-05-04T04:19:38.770Z,11.42
2018-05-04T04:22:42.647Z,11.29
2018-05-04T04:25:45.975Z,11.17
2018-05-04T04:28:49.318Z,11.19
2018-05-04T04:31:52.676Z,11.22
2018-05-04T04:34:56.065Z,11.33
2018-05-04T04:37:59.383Z,11.30
2018-05-04T04:41:02.660Z,11.29
2018-05-04T04:44:06.059Z,11.25
2018-05-04T04:47:09.306Z,11.39
2018-05-04T04:50:13.954Z,11.24
2018-05-04T04:53:17.237Z,11.23
2018-05-04T04:56:20.587Z,11.27
2018-05-04T04:59:23.759Z,11.21
2018-05-04T05:02:44.256Z,11.12
2018-05-04T05:05:47.535Z,11.12
2018-05-04T05:08:50.870Z,11.16
2018-05-04T05:11:54.247Z,11.32
2018-05-04T05:14:57.712Z,11.35
2018-05-04T05:18:01.002Z,11.40
2018-05-04T05:21:04.529Z,11.37
2018-05-04T05:24:07.843Z,11.42
2018-05-04T05:27:12.057Z,11.47
2018-05-04T05:30:15.395Z,11.60
2018-05-04T05:33:18.791Z,11.72
2018-05-04T05:36:22.109Z,11.73
2018-05-04T05:39:25.307Z,11.67
2018-05-04T05:42:28.668Z,11.64
2018-05-04T05:45:31.889Z,11.73
2018-05-04T05:48:35.247Z,11.78
2018-05-04T05:51:38.600Z,11.82
2018-05-04T05:54:41.917Z,11.96
2018-05-04T05:57:45.201Z,11.87
2018-05-04T06:00:49.889Z,11.86
2018-05-04T06:03:53.231Z,12.06
2018-05-04T06:06:56.584Z,12.22
2018-05-04T06:09:59.849Z,12.41
2018-05-04T06:13:03.219Z,12.34
2018-05-04T06:16:06.298Z,12.39
2018-05-04T06:19:10.630Z,12.61
2018-05-04T06:22:14.029Z,12.75
2018-05-04T06:25:18.029Z,12.93
2018-05-04T06:28:21.279Z,13.09
2018-05-04T06:31:24.564Z,13.09
2018-05-04T06:34:27.915Z,13.16
2018-05-04T06:37:31.157Z,13.22
2018-05-04T06:40:34.521Z,13.35
2018-05-04T06:43:37.815Z,13.42
2018-05-04T06:46:42.118Z,13.47
2018-05-04T06:49:45.686Z,13.45
2018-05-04T06:52:49.097Z,13.46
2018-05-04T06:55:52.249Z,13.57
2018-05-04T06:58:55.567Z,13.67
2018-05-04T07:01:59.201Z,13.82
2018-05-04T07:05:02.951Z,13.96
2018-05-04T07:08:06.360Z,13.99
2018-05-04T07:11:09.847Z,14.13
2018-05-04T07:14:13.243Z,14.13
2018-05-04T07:17:16.976Z,14.26
2018-05-04T07:20:20.508Z,14.42
2018-05-04T07:23:23.885Z,14.66
2018-05-04T07:26:28.357Z,14.72
2018-05-04T07:29:31.580Z,14.79
2018-05-04T07:32:34.820Z,14.94
2018-05-04T07:35:38.805Z,15.06
2018-05-04T07:38:42.153Z,15.30
2018-05-04T07:41:46.167Z,15.48
2018-05-04T07:44:49.439Z,15.57
2018-05-04T07:47:52.820Z,15.74
2018-05-04T07:50:56.060Z,15.82
2018-05-04T07:53:59.407Z,15.78
2018-05-04T07:57:02.660Z,15.89
2018-05-04T08:00:05.931Z,16.15
2018-05-04T08:03:09.246Z,16.28
2018-05-04T08:06:12.459Z,16.43
2018-05-04T08:09:16.399Z,16.49
2018-05-04T08:12:19.790Z,16.60
2018-05-04T08:15:22.991Z,16.66
2018-05-04T08:18:26.301Z,16.65
2018-05-04T08:21:29.488Z,16.67
2018-05-04T08:24:32.876Z,16.81
2018-05-04T08:27:36.206Z,16.91
2018-05-04T08:30:39.546Z,16.89
2018-05-04T08:33:42.880Z,17.13
2018-05-04T08:36:46.100Z,17.14
2018-05-04T08:39:49.332Z,17.33
2018-05-04T08:42:52.718Z,17.40
2018-05-04T08:45:55.982Z,17.58
2018-05-04T08:48:59.329Z,17.76
2018-05-04T08:52:02.683Z,17.93
2018-05-04T08:55:06.064Z,17.99
2018-05-04T08:58:09.454Z,18.04
2018-05-04T09:01:12.688Z,18.30
2018-05-04T09:04:17.040Z,18.32
2018-05-04T09:07:20.396Z,18.41
2018-05-04T09:10:23.792Z,18.52
2018-05-04T09:13:26.976Z,18.58
2018-05-04T09:16:30.360Z,18.73
2018-05-04T09:19:33.577Z,18.73
2018-05-04T09:22:36.925Z,18.77
2018-05-04T09:25:40.183Z,18.83
2018-05-04T09:28:43.411Z,18.99
2018-05-04T09:31:47.771Z,19.01
2018-05-04T09:34:53.404Z,19.23
2018-05-04T09:37:56.736Z,19.48
2018-05-04T09:41:00.215Z,19.83
2018-05-04T09:44:03.551Z,20.05
2018-05-04T09:50:16.087Z,20.18
2018-05-04T09:53:20.248Z,20.08
2018-05-04T09:56:23.725Z,20.04
2018-05-04T09:59:27.127Z,20.15
2018-05-04T10:02:30.464Z,20.15
2018-05-04T10:05:33.737Z,20.37
2018-05-04T10:08:36.895Z,20.48
2018-05-04T10:11:40.325Z,20.32
2018-05-04T10:14:43.710Z,20.30
2018-05-04T10:17:48.155Z,20.43
2018-05-04T10:20:51.524Z,20.46
2018-05-04T10:23:54.925Z,20.50
2018-05-04T10:26:58.215Z,20.59
2018-05-04T10:30:02.167Z,20.66
2018-05-04T10:33:05.675Z,21.05
2018-05-04T10:36:09.257Z,21.25
2018-05-04T10:39:13.181Z,21.32
2018-05-04T10:42:18.164Z,21.56
2018-05-04T10:45:21.726Z,21.63
2018-05-04T10:48:25.360Z,21.86
2018-05-04T10:51:29.233Z,21.96
2018-05-04T10:54:33.255Z,22.10
2018-05-04T10:57:36.782Z,22.10
2018-05-04T11:00:40.388Z,21.98
2018-05-04T11:03:44.371Z,21.98
2018-05-04T11:06:48.844Z,22.02
2018-05-04T11:09:52.402Z,22.00
2018-05-04T11:12:56.939Z,21.99
2018-05-04T11:16:00.560Z,21.87
2018-05-04T11:19:04.378Z,21.99
2018-05-04T11:22:08.438Z,22.37
2018-05-04T11:25:12.421Z,22.54
2018-05-04T11:28:16.493Z,22.49
2018-05-04T11:31:21.281Z,22.58
2018-05-04T11:34:24.663Z,22.63
2018-05-04T11:37:28.554Z,22.69
2018-05-04T11:40:32.172Z,22.73
2018-05-04T11:43:36.153Z,22.73
2018-05-04T11:46:39.891Z,23.05
2018-05-04T11:49:43.635Z,22.88
2018-05-04T11:52:48.190Z,22.96
2018-05-04T11:55:51.469Z,22.98
2018-05-04T11:58:54.841Z,23.17
2018-05-04T12:01:58.185Z,23.32
2018-05-04T12:05:01.468Z,23.40
2018-05-04T12:08:04.756Z,23.47
2018-05-04T12:11:08.053Z,23.41
2018-05-04T12:14:11.416Z,23.66
2018-05-04T12:17:14.747Z,23.91
2018-05-04T12:20:18.940Z,23.87
2018-05-04T12:23:22.183Z,24.02
2018-05-04T12:26:25.513Z,23.84
2018-05-04T12:29:28.814Z,23.98
2018-05-04T12:32:32.051Z,24.05
2018-05-04T12:35:36.427Z,24.10
2018-05-04T12:38:39.863Z,24.20
2018-05-04T12:41:43.079Z,23.99
2018-05-04T12:44:46.435Z,24.01
2018-05-04T12:47:49.607Z,23.58
2018-05-04T12:50:53.731Z,23.82
2018-05-04T12:53:56.959Z,23.89
2018-05-04T12:57:00.229Z,24.08
2018-05-04T13:00:03.669Z,24.03
2018-05-04T13:03:08.190Z,24.12
2018-05-04T13:06:11.559Z,24.23
2018-05-04T13:09:14.816Z,24.27
2018-05-04T13:12:17.987Z,24.24
2018-05-04T13:15:21.315Z,24.58
2018-05-04T13:18:24.493Z,24.81
2018-05-04T13:21:28.733Z,24.95
2018-05-04T13:24:32.086Z,25.11
2018-05-04T13:27:35.354Z,24.97
2018-05-04T13:30:38.845Z,25.04
2018-05-04T13:33:42.329Z,25.01
2018-05-04T13:36:45.647Z,25.08
2018-05-04T13:39:48.981Z,25.28
2018-05-04T13:42:52.357Z,25.33
2018-05-04T13:45:55.756Z,24.98
2018-05-04T13:48:58.984Z,25.04
2018-05-04T13:52:02.345Z,24.98
2018-05-04T13:55:05.570Z,25.18
2018-05-04T13:58:08.954Z,24.88
2018-05-04T14:01:13.422Z,24.56
2018-05-04T14:04:17.800Z,24.70
2018-05-04T14:07:21.118Z,25.04
2018-05-04T14:10:24.492Z,24.98
2018-05-04T14:13:27.676Z,24.86
2018-05-04T14:16:30.995Z,24.55
2018-05-04T14:19:34.276Z,24.70
2018-05-04T14:22:37.584Z,24.84
2018-05-04T14:25:40.877Z,25.14
2018-05-04T14:28:44.268Z,25.30
2018-05-04T14:31:48.284Z,25.47
2018-05-04T14:34:51.787Z,25.69
2018-05-04T14:37:54.886Z,25.78
2018-05-04T14:40:58.206Z,25.99
2018-05-04T14:44:01.472Z,26.14
2018-05-04T14:47:04.751Z,25.93
2018-05-04T14:50:08.015Z,25.50
2018-05-04T14:53:11.324Z,25.27
2018-05-04T14:56:15.051Z,25.04
2018-05-04T14:59:18.329Z,25.07
2018-05-04T15:02:21.540Z,25.10
2018-05-04T15:05:24.867Z,25.45
2018-05-04T15:08:28.208Z,25.41
2018-05-04T15:11:31.447Z,25.57
2018-05-04T15:14:34.829Z,25.51
2018-05-04T15:17:38.177Z,25.43
2018-05-04T15:20:41.948Z,25.65
2018-05-04T15:23:46.192Z,25.67
2018-05-04T15:26:49.661Z,25.66
2018-05-04T15:29:52.996Z,25.56
2018-05-04T15:32:56.300Z,25.50
2018-05-04T15:35:59.748Z,25.31
2018-05-04T15:39:03.148Z,25.35
2018-05-04T15:42:06.482Z,25.42
2018-05-04T15:45:09.890Z,25.46
2018-05-04T15:48:17.423Z,25.60
2018-05-04T15:52:24.663Z,25.70
2018-05-04T15:55:28.020Z,25.32
2018-05-04T15:58:31.386Z,25.36
2018-05-04T16:01:34.728Z,25.45
2018-05-04T16:04:38.046Z,25.27
2018-05-04T16:07:41.268Z,25.31
2018-05-04T16:10:44.504Z,25.14
2018-05-04T16:13:49.428Z,24.76
2018-05-04T16:16:52.811Z,24.67
2018-05-04T16:19:56.055Z,24.42
2018-05-04T16:22:59.418Z,24.34
2018-05-04T16:26:02.759Z,24.21
2018-05-04T16:29:07.689Z,24.39
2018-05-04T16:32:10.912Z,24.58
2018-05-04T16:35:14.136Z,24.63
2018-05-04T16:38:17.434Z,24.47
2018-05-04T16:41:20.753Z,24.09
2018-05-04T16:44:24.064Z,24.08
2018-05-04T16:47:27.457Z,23.98
2018-05-04T16:50:30.883Z,24.06
2018-05-04T16:53:34.726Z,24.02
2018-05-04T16:56:38.145Z,23.86
2018-05-04T16:59:41.576Z,23.75
2018-05-04T17:02:44.926Z,23.73
2018-05-04T17:05:48.360Z,23.70
2018-05-04T17:08:51.801Z,23.60
2018-05-04T17:11:55.361Z,23.54
2018-05-04T17:14:58.685Z,23.46
2018-05-04T17:18:02.100Z,23.37
2018-05-04T17:21:05.303Z,23.21
2018-05-04T17:24:09.094Z,23.18
2018-05-04T17:27:12.447Z,23.22
2018-05-04T17:30:15.668Z,23.11
2018-05-04T17:33:19.020Z,23.03
2018-05-04T17:36:23.382Z,23.00
2018-05-04T17:39:26.765Z,22.95
2018-05-04T17:42:30.220Z,22.90
2018-05-04T17:45:33.571Z,22.78
2018-05-04T17:48:36.951Z,22.73
2018-05-04T17:51:41.136Z,22.68
2018-05-04T17:54:44.459Z,22.71
2018-05-04T17:57:47.826Z,22.61
2018-05-04T18:00:51.157Z,22.56
2018-05-04T18:03:54.380Z,22.51
2018-05-04T18:06:57.547Z,22.33
2018-05-04T18:10:00.888Z,22.18
2018-05-04T18:13:04.248Z,22.18
2018-05-04T18:16:07.639Z,22.08
2018-05-04T18:19:10.903Z,21.99
2018-05-04T18:22:14.127Z,21.83
2018-05-04T18:25:17.506Z,21.73
2018-05-04T18:28:21.579Z,21.61
2018-05-04T18:31:24.842Z,21.56
2018-05-04T18:34:28.152Z,21.48
2018-05-04T18:37:31.548Z,21.48
2018-05-04T18:40:34.943Z,21.50
2018-05-04T18:43:38.299Z,21.55
2018-05-04T18:46:43.295Z,21.46
2018-05-04T18:49:46.700Z,21.35
2018-05-04T18:52:50.106Z,21.16
2018-05-04T18:55:53.454Z,21.11
2018-05-04T18:58:56.734Z,20.91
2018-05-04T19:01:59.990Z,20.91
2018-05-04T19:05:03.242Z,20.78
2018-05-04T19:08:06.586Z,20.68
2018-05-04T19:11:09.992Z,20.61
2018-05-04T19:14:14.141Z,20.53
2018-05-04T19:17:17.498Z,20.50
2018-05-04T19:20:20.863Z,20.45
2018-05-04T19:23:25.220Z,20.37
2018-05-04T19:26:28.594Z,20.31
2018-05-04T19:29:31.986Z,20.24
2018-05-04T19:32:35.279Z,20.20
2018-05-04T19:35:38.695Z,20.15
2018-05-04T19:38:42.045Z,20.14
2018-05-04T19:41:45.400Z,20.07
2018-05-04T19:44:48.875Z,19.97
2018-05-04T19:47:52.388Z,19.91
2018-05-04T19:50:55.663Z,19.86
2018-05-04T19:53:58.856Z,19.83
2018-05-04T19:57:02.222Z,19.73
2018-05-04T20:00:06.577Z,19.68
2018-05-04T20:03:09.950Z,19.67
2018-05-04T20:06:13.311Z,19.58
2018-05-04T20:09:16.505Z,19.49
2018-05-04T20:12:20.232Z,19.50
2018-05-04T20:15:23.589Z,19.22
2018-05-04T20:18:26.812Z,19.12
2018-05-04T20:21:30.083Z,18.98
2018-05-04T20:24:33.484Z,18.82
2018-05-04T20:27:36.804Z,18.76
2018-05-04T20:30:40.210Z,18.85
2018-05-04T20:33:43.549Z,18.81
2018-05-04T20:36:46.804Z,18.87
2018-05-04T20:39:52.604Z,18.78
2018-05-04T20:42:55.957Z,18.69
2018-05-04T20:45:59.368Z,18.65
2018-05-04T20:49:04.708Z,18.55
2018-05-04T20:52:07.983Z,18.49
2018-05-04T20:55:12.314Z,18.57
2018-05-04T20:58:15.567Z,18.63
2018-05-04T21:01:19.505Z,18.57
2018-05-04T21:04:22.930Z,18.38
2018-05-04T21:07:26.321Z,18.40
2018-05-04T21:10:29.648Z,18.46
2018-05-04T21:13:32.928Z,18.41
2018-05-04T21:16:36.324Z,18.42
2018-05-04T21:19:39.627Z,18.38
2018-05-04T21:22:42.920Z,18.32
2018-05-04T21:25:47.246Z,18.31
2018-05-04T21:28:51.591Z,18.39
2018-05-04T21:31:54.975Z,18.29
2018-05-04T21:34:58.271Z,18.29
2018-05-04T21:38:01.648Z,18.17
2018-05-04T21:41:04.993Z,18.14
2018-05-04T21:44:08.203Z,18.08
2018-05-04T21:47:11.469Z,18.09
2018-05-04T21:50:14.881Z,18.13
2018-05-04T21:53:18.243Z,18.03
2018-05-04T21:56:22.475Z,17.91
2018-05-04T21:59:25.785Z,17.93
2018-05-04T22:02:29.064Z,17.91
2018-05-04T22:05:32.404Z,17.87
2018-05-04T22:08:35.776Z,17.82
2018-05-04T22:11:39.078Z,17.75
2018-05-04T22:14:42.475Z,17.80
2018-05-04T22:17:45.757Z,17.72
2018-05-04T22:20:49.041Z,17.74
2018-05-04T22:23:52.659Z,17.70
2018-05-04T22:26:55.956Z,17.61
2018-05-04T22:30:00.272Z,17.55
2018-05-04T22:33:03.710Z,17.61
2018-05-04T22:36:07.102Z,17.59
2018-05-04T22:39:10.366Z,17.52
2018-05-04T22:42:13.767Z,17.47
2018-05-04T22:45:17.104Z,17.35
2018-05-04T22:48:20.999Z,17.31
2018-05-04T22:51:24.395Z,17.30
2018-05-04T22:54:27.593Z,17.37
2018-05-04T22:57:31.836Z,17.36
2018-05-04T23:00:35.222Z,17.30
2018-05-04T23:03:38.531Z,17.29
2018-05-04T23:06:41.696Z,17.36
2018-05-04T23:09:45.085Z,17.33
2018-05-04T23:12:48.324Z,17.46
2018-05-04T23:15:52.728Z,17.42
2018-05-04T23:18:56.010Z,17.28
2018-05-04T23:21:59.407Z,17.28
2018-05-04T23:25:02.747Z,17.23
2018-05-04T23:28:06.146Z,17.23
2018-05-04T23:31:09.495Z,17.13
2018-05-04T23:34:12.783Z,16.98
2018-05-04T23:37:16.187Z,16.92
2018-05-04T23:40:19.518Z,16.85
2018-05-04T23:43:23.031Z,16.86
2018-05-04T23:46:26.337Z,16.89
2018-05-04T23:49:29.699Z,16.87
2018-05-04T23:52:33.092Z,16.91
2018-05-04T23:55:36.512Z,16.93
2018-05-04T23:58:39.796Z,16.88
